createdAt,value
2019-03-12T00:00:49.584Z,92.29
2019-03-12T00:01:49.565Z,92.18
2019-03-12T00:02:49.572Z,91.56
2019-03-12T00:03:49.553Z,91.97
2019-03-12T00:04:49.534Z,91.60
2019-03-12T00:05:49.526Z,92.02
2019-03-12T00:06:49.511Z,92.12
2019-03-12T00:07:49.519Z,91.71
2019-03-12T00:08:49.488Z,92.18
2019-03-12T00:09:49.480Z,92.22
2019-03-12T00:10:49.476Z,92.22
2019-03-12T00:11:49.456Z,92.29
2019-03-12T00:12:49.460Z,92.12
2019-03-12T00:13:49.443Z,92.02
2019-03-12T00:14:49.420Z,92.64
2019-03-12T00:15:49.408Z,92.54
2019-03-12T00:16:49.404Z,92.33
2019-03-12T00:17:49.417Z,92.02
2019-03-12T00:18:49.396Z,91.60
2019-03-12T00:19:49.368Z,92.29
2019-03-12T00:20:49.360Z,91.60
2019-03-12T00:21:49.356Z,92.33
2019-03-12T00:22:49.364Z,92.43
2019-03-12T00:23:49.330Z,91.60
2019-03-12T00:24:49.314Z,91.60
2019-03-12T00:25:49.309Z,91.50
2019-03-12T00:26:49.300Z,91.18
2019-03-12T00:27:49.300Z,90.87
2019-03-12T00:28:49.271Z,90.93
2019-03-12T00:29:49.273Z,90.83
2019-03-12T00:30:49.244Z,90.62
2019-03-12T00:31:49.238Z,90.20
2019-03-12T00:32:49.251Z,90.41
2019-03-12T00:33:49.213Z,90.56
2019-03-12T00:34:49.216Z,90.83
2019-03-12T00:35:49.190Z,90.56
2019-03-12T00:36:49.196Z,90.77
2019-03-12T00:37:49.193Z,90.56
2019-03-12T00:38:49.163Z,90.56
2019-03-12T00:39:49.156Z,90.87
2019-03-12T00:40:49.156Z,90.87
2019-03-12T00:41:49.130Z,90.66
2019-03-12T00:42:49.139Z,90.25
2019-03-12T00:43:49.117Z,90.50
2019-03-12T00:44:49.105Z,90.39
2019-03-12T00:45:49.092Z,90.08
2019-03-12T00:46:49.096Z,90.19
2019-03-12T00:47:49.088Z,90.45
2019-03-12T00:48:49.052Z,90.45
2019-03-12T00:49:49.060Z,90.56
2019-03-12T00:50:49.053Z,90.56
2019-03-12T00:51:49.022Z,90.87
2019-03-12T00:52:49.072Z,89.83
2019-03-12T00:53:49.003Z,89.73
2019-03-12T00:54:49.001Z,89.83
2019-03-12T00:55:48.983Z,89.94
2019-03-12T00:56:48.972Z,89.94
2019-03-12T00:57:48.966Z,90.14
2019-03-12T00:58:48.974Z,90.25
2019-03-12T00:59:48.933Z,89.31
2019-03-12T01:00:48.937Z,88.85
2019-03-12T01:01:48.921Z,89.06
2019-03-12T01:02:48.917Z,88.85
2019-03-12T01:03:48.931Z,88.79
2019-03-12T01:04:48.879Z,88.85
2019-03-12T01:05:48.865Z,89.20
2019-03-12T01:06:48.860Z,88.79
2019-03-12T01:07:48.854Z,88.79
2019-03-12T01:08:48.860Z,88.79
2019-03-12T01:09:48.825Z,88.96
2019-03-12T01:10:48.823Z,89.27
2019-03-12T01:11:48.808Z,88.64
2019-03-12T01:12:48.796Z,88.96
2019-03-12T01:13:48.804Z,89.37
2019-03-12T01:14:48.770Z,88.96
2019-03-12T01:15:48.770Z,88.64
2019-03-12T01:16:48.751Z,89.37
2019-03-12T01:17:48.749Z,89.27
2019-03-12T01:18:48.739Z,89.37
2019-03-12T01:19:48.726Z,89.17
2019-03-12T01:20:48.712Z,88.96
2019-03-12T01:21:48.695Z,89.02
2019-03-12T01:22:48.686Z,89.02
2019-03-12T01:23:48.696Z,89.02
2019-03-12T01:24:48.674Z,88.81
2019-03-12T01:25:48.642Z,89.23
2019-03-12T01:26:48.637Z,89.33
2019-03-12T01:27:48.631Z,89.33
2019-03-12T01:28:48.631Z,89.12
2019-03-12T01:29:48.607Z,89.58
2019-03-12T01:30:48.612Z,89.48
2019-03-12T01:31:48.588Z,89.89
2019-03-12T01:32:48.598Z,90.00
2019-03-12T01:33:48.612Z,90.06
2019-03-12T01:34:48.563Z,90.26
2019-03-12T01:35:48.546Z,89.89
2019-03-12T01:36:48.534Z,90.41
2019-03-12T01:37:48.528Z,90.52
2019-03-12T01:38:48.508Z,90.93
2019-03-12T01:39:48.526Z,90.83
2019-03-12T01:40:48.498Z,91.25
2019-03-12T01:41:48.482Z,91.04
2019-03-12T01:42:48.483Z,91.56
2019-03-12T01:43:48.465Z,91.04
2019-03-12T01:44:48.462Z,90.83
2019-03-12T01:45:48.419Z,90.62
2019-03-12T01:46:48.415Z,90.20
2019-03-12T01:47:48.427Z,90.62
2019-03-12T01:48:48.398Z,90.47
2019-03-12T01:49:48.432Z,89.95
2019-03-12T01:50:48.376Z,90.26
2019-03-12T01:51:48.378Z,90.37
2019-03-12T01:52:48.367Z,89.85
2019-03-12T01:53:48.355Z,89.75
2019-03-12T01:54:48.363Z,90.06
2019-03-12T01:55:48.348Z,89.64
2019-03-12T01:56:48.313Z,90.20
2019-03-12T01:57:48.326Z,90.16
2019-03-12T01:58:48.298Z,90.16
2019-03-12T01:59:48.300Z,89.75
2019-03-12T02:00:48.262Z,90.47
2019-03-12T02:01:48.251Z,90.26
2019-03-12T02:02:48.258Z,90.58
2019-03-12T02:03:48.240Z,90.16
2019-03-12T02:04:48.237Z,89.95
2019-03-12T02:05:48.222Z,89.95
2019-03-12T02:06:48.216Z,89.95
2019-03-12T02:07:48.207Z,90.69
2019-03-12T02:08:48.191Z,90.16
2019-03-12T02:09:48.185Z,89.75
2019-03-12T02:10:48.167Z,89.64
2019-03-12T02:11:48.151Z,88.81
2019-03-12T02:12:48.149Z,89.02
2019-03-12T02:13:48.128Z,88.81
2019-03-12T02:14:48.158Z,88.60
2019-03-12T02:15:48.113Z,89.23
2019-03-12T02:16:48.096Z,89.43
2019-03-12T02:17:48.097Z,89.43
2019-03-12T02:18:48.085Z,89.33
2019-03-12T02:19:48.082Z,89.23
2019-03-12T02:20:48.052Z,89.33
2019-03-12T02:21:48.053Z,89.33
2019-03-12T02:22:48.037Z,89.33
2019-03-12T02:23:48.022Z,88.81
2019-03-12T02:24:52.536Z,89.02
2019-03-12T02:25:49.003Z,88.92
2019-03-12T02:26:48.005Z,88.87
2019-03-12T02:27:47.987Z,88.87
2019-03-12T02:28:47.967Z,88.50
2019-03-12T02:29:47.969Z,88.35
2019-03-12T02:30:47.948Z,88.46
2019-03-12T02:31:47.935Z,88.77
2019-03-12T02:32:47.914Z,88.60
2019-03-12T02:33:47.897Z,88.92
2019-03-12T02:34:47.916Z,89.02
2019-03-12T02:35:47.889Z,89.43
2019-03-12T02:36:47.875Z,88.92
2019-03-12T02:37:47.879Z,88.60
2019-03-12T02:38:47.853Z,88.46
2019-03-12T02:39:47.861Z,88.92
2019-03-12T02:40:47.832Z,88.50
2019-03-12T02:41:47.823Z,89.02
2019-03-12T02:42:47.849Z,88.92
2019-03-12T02:43:47.804Z,89.12
2019-03-12T02:44:47.806Z,89.29
2019-03-12T02:45:47.770Z,89.08
2019-03-12T02:46:47.787Z,89.33
2019-03-12T02:47:47.786Z,88.77
2019-03-12T02:48:47.746Z,88.25
2019-03-12T02:49:47.753Z,88.25
2019-03-12T02:50:47.728Z,88.77
2019-03-12T02:51:47.719Z,89.02
2019-03-12T02:52:47.702Z,88.67
2019-03-12T02:53:47.705Z,89.12
2019-03-12T02:54:47.707Z,89.33
2019-03-12T02:55:47.661Z,88.67
2019-03-12T02:56:47.656Z,89.08
2019-03-12T02:57:47.657Z,89.08
2019-03-12T02:58:47.642Z,88.98
2019-03-12T02:59:47.687Z,88.35
2019-03-12T03:00:47.623Z,88.35
2019-03-12T03:01:47.606Z,89.08
2019-03-12T03:02:47.692Z,88.98
2019-03-12T03:03:47.586Z,88.81
2019-03-12T03:04:47.571Z,88.77
2019-03-12T03:05:47.586Z,88.67
2019-03-12T03:06:47.550Z,88.67
2019-03-12T03:07:47.539Z,88.77
2019-03-12T03:08:47.544Z,88.67
2019-03-12T03:09:47.527Z,88.87
2019-03-12T03:10:47.523Z,89.08
2019-03-12T03:11:50.884Z,88.77
2019-03-12T03:12:47.491Z,88.42
2019-03-12T03:13:47.473Z,88.73
2019-03-12T03:14:47.465Z,88.62
2019-03-12T03:15:47.506Z,88.10
2019-03-12T03:16:47.453Z,88.10
2019-03-12T03:17:47.447Z,88.21
2019-03-12T03:18:47.421Z,88.21
2019-03-12T03:19:47.418Z,88.52
2019-03-12T03:20:47.417Z,88.31
2019-03-12T03:21:47.387Z,88.62
2019-03-12T03:22:47.378Z,88.52
2019-03-12T03:23:47.371Z,88.62
2019-03-12T03:24:47.363Z,88.52
2019-03-12T03:25:47.368Z,88.21
2019-03-12T03:26:47.336Z,88.07
2019-03-12T03:27:47.332Z,88.17
2019-03-12T03:28:47.311Z,87.96
2019-03-12T03:29:47.322Z,88.07
2019-03-12T03:30:47.307Z,88.10
2019-03-12T03:31:47.291Z,88.17
2019-03-12T03:32:47.285Z,88.21
2019-03-12T03:33:47.285Z,88.07
2019-03-12T03:34:47.247Z,87.96
2019-03-12T03:35:47.265Z,87.86
2019-03-12T03:36:47.229Z,87.86
2019-03-12T03:37:47.212Z,87.65
2019-03-12T03:38:47.226Z,88.07
2019-03-12T03:39:47.191Z,88.17
2019-03-12T03:40:47.205Z,87.65
2019-03-12T03:41:47.203Z,87.45
2019-03-12T03:42:47.163Z,87.55
2019-03-12T03:43:47.157Z,87.96
2019-03-12T03:44:47.138Z,87.76
2019-03-12T03:45:47.126Z,87.86
2019-03-12T03:46:47.139Z,87.76
2019-03-12T03:47:47.228Z,87.55
2019-03-12T03:48:47.095Z,87.55
2019-03-12T03:49:47.105Z,87.45
2019-03-12T03:50:47.067Z,87.34
2019-03-12T03:51:47.079Z,87.34
2019-03-12T03:52:47.048Z,87.34
2019-03-12T03:53:47.040Z,87.55
2019-03-12T03:54:47.029Z,86.82
2019-03-12T03:55:47.041Z,87.24
2019-03-12T03:56:47.022Z,87.24
2019-03-12T03:57:47.014Z,86.82
2019-03-12T03:58:46.994Z,87.45
2019-03-12T03:59:46.981Z,87.03
2019-03-12T04:00:46.988Z,86.88
2019-03-12T04:01:46.981Z,86.26
2019-03-12T04:02:46.942Z,86.57
2019-03-12T04:03:46.934Z,86.36
2019-03-12T04:04:46.930Z,85.95
2019-03-12T04:05:46.915Z,85.74
2019-03-12T04:06:46.919Z,86.26
2019-03-12T04:07:46.882Z,85.95
2019-03-12T04:08:46.885Z,85.74
2019-03-12T04:09:46.879Z,86.05
2019-03-12T04:10:46.864Z,86.26
2019-03-12T04:11:46.862Z,86.09
2019-03-12T04:12:46.832Z,86.16
2019-03-12T04:13:46.821Z,86.61
2019-03-12T04:14:46.809Z,85.88
2019-03-12T04:15:46.801Z,86.13
2019-03-12T04:16:46.812Z,85.99
2019-03-12T04:17:46.778Z,86.41
2019-03-12T04:18:46.767Z,86.61
2019-03-12T04:19:46.757Z,87.27
2019-03-12T04:20:46.745Z,87.45
2019-03-12T04:21:46.768Z,87.27
2019-03-12T04:22:46.730Z,87.27
2019-03-12T04:23:46.715Z,87.17
2019-03-12T04:24:46.692Z,87.24
2019-03-12T04:25:46.700Z,86.61
2019-03-12T04:26:46.683Z,86.34
2019-03-12T04:27:46.680Z,86.65
2019-03-12T04:28:46.671Z,85.99
2019-03-12T04:29:46.649Z,85.99
2019-03-12T04:30:46.646Z,85.99
2019-03-12T04:31:46.623Z,86.41
2019-03-12T04:32:46.634Z,86.30
2019-03-12T04:33:46.607Z,86.61
2019-03-12T04:34:46.582Z,86.51
2019-03-12T04:35:46.570Z,86.26
2019-03-12T04:36:46.577Z,85.99
2019-03-12T04:37:46.575Z,85.95
2019-03-12T04:38:46.545Z,85.95
2019-03-12T04:39:46.545Z,86.16
2019-03-12T04:40:46.523Z,86.05
2019-03-12T04:41:46.519Z,85.74
2019-03-12T04:42:46.518Z,85.64
2019-03-12T04:43:46.484Z,85.12
2019-03-12T04:44:46.485Z,84.81
2019-03-12T04:45:46.465Z,84.19
2019-03-12T04:46:46.454Z,83.77
2019-03-12T04:47:46.475Z,83.36
2019-03-12T04:48:46.443Z,83.36
2019-03-12T04:49:46.422Z,83.36
2019-03-12T04:50:46.415Z,83.46
2019-03-12T04:51:46.400Z,82.73
2019-03-12T04:52:46.402Z,82.94
2019-03-12T04:53:46.384Z,82.53
2019-03-12T04:54:46.372Z,83.04
2019-03-12T04:55:46.363Z,83.04
2019-03-12T04:56:46.350Z,83.25
2019-03-12T04:57:46.370Z,82.63
2019-03-12T04:58:46.331Z,82.11
2019-03-12T04:59:46.315Z,81.18
2019-03-12T05:00:46.340Z,81.59
2019-03-12T05:01:46.298Z,81.70
2019-03-12T05:02:46.311Z,81.38
2019-03-12T05:03:46.310Z,81.18
2019-03-12T05:04:46.265Z,81.18
2019-03-12T05:05:46.254Z,81.49
2019-03-12T05:06:46.243Z,81.28
2019-03-12T05:07:46.245Z,81.18
2019-03-12T05:08:46.236Z,81.18
2019-03-12T05:09:46.220Z,81.18
2019-03-12T05:10:46.197Z,80.97
2019-03-12T05:11:46.179Z,80.97
2019-03-12T05:12:46.185Z,80.97
2019-03-12T05:13:46.192Z,81.42
2019-03-12T05:14:46.163Z,81.21
2019-03-12T05:15:46.137Z,81.63
2019-03-12T05:16:46.136Z,82.46
2019-03-12T05:17:46.126Z,81.63
2019-03-12T05:18:46.117Z,82.15
2019-03-12T05:19:46.097Z,82.04
2019-03-12T05:20:46.088Z,81.94
2019-03-12T05:21:46.075Z,81.42
2019-03-12T05:22:46.076Z,81.11
2019-03-12T05:23:46.061Z,81.52
2019-03-12T05:24:46.036Z,81.11
2019-03-12T05:25:46.032Z,81.21
2019-03-12T05:26:46.026Z,80.90
2019-03-12T05:27:46.019Z,81.35
2019-03-12T05:28:46.021Z,81.15
2019-03-12T05:29:46.001Z,80.73
2019-03-12T05:30:45.981Z,81.15
2019-03-12T05:31:45.985Z,80.83
2019-03-12T05:32:45.962Z,81.04
2019-03-12T05:33:45.971Z,81.15
2019-03-12T05:34:45.945Z,81.25
2019-03-12T05:35:45.930Z,81.77
2019-03-12T05:36:45.910Z,81.67
2019-03-12T05:37:45.906Z,81.87
2019-03-12T05:38:45.912Z,82.08
2019-03-12T05:39:45.880Z,81.87
2019-03-12T05:40:45.872Z,81.67
2019-03-12T05:41:45.867Z,81.87
2019-03-12T05:42:45.850Z,82.46
2019-03-12T05:43:45.858Z,81.94
2019-03-12T05:44:45.837Z,81.01
2019-03-12T05:45:45.812Z,81.01
2019-03-12T05:46:45.805Z,80.69
2019-03-12T05:47:45.796Z,80.69
2019-03-12T05:48:45.810Z,80.38
2019-03-12T05:49:45.784Z,79.86
2019-03-12T05:50:45.763Z,79.97
2019-03-12T05:51:45.744Z,80.59
2019-03-12T05:52:48.817Z,80.28
2019-03-12T05:53:45.744Z,80.28
2019-03-12T05:54:45.748Z,80.38
2019-03-12T05:55:45.713Z,80.18
2019-03-12T05:56:45.691Z,79.93
2019-03-12T05:57:45.677Z,80.28
2019-03-12T05:58:45.672Z,80.07
2019-03-12T05:59:45.696Z,80.28
2019-03-12T06:00:45.650Z,80.45
2019-03-12T06:01:46.759Z,80.07
2019-03-12T06:02:45.632Z,79.76
2019-03-12T06:03:45.634Z,79.30
2019-03-12T06:04:45.636Z,79.03
2019-03-12T06:05:45.596Z,78.89
2019-03-12T06:06:45.604Z,78.61
2019-03-12T06:07:45.575Z,78.61
2019-03-12T06:08:45.560Z,79.03
2019-03-12T06:09:45.571Z,79.24
2019-03-12T06:10:45.555Z,79.76
2019-03-12T06:11:45.538Z,79.90
2019-03-12T06:12:45.533Z,79.58
2019-03-12T06:13:45.516Z,79.65
2019-03-12T06:14:45.514Z,79.86
2019-03-12T06:15:45.499Z,80.21
2019-03-12T06:16:45.470Z,80.00
2019-03-12T06:17:45.580Z,79.90
2019-03-12T06:18:45.477Z,80.00
2019-03-12T06:19:45.463Z,80.07
2019-03-12T06:20:45.432Z,80.07
2019-03-12T06:21:45.424Z,80.32
2019-03-12T06:22:45.421Z,80.28
2019-03-12T06:23:45.419Z,79.65
2019-03-12T06:24:45.415Z,79.65
2019-03-12T06:25:45.388Z,79.24
2019-03-12T06:26:45.362Z,78.82
2019-03-12T06:27:45.368Z,78.82
2019-03-12T06:28:45.345Z,78.58
2019-03-12T06:29:45.359Z,77.64
2019-03-12T06:30:45.323Z,77.47
2019-03-12T06:31:45.314Z,78.09
2019-03-12T06:32:45.313Z,77.54
2019-03-12T06:33:45.296Z,77.12
2019-03-12T06:34:45.319Z,77.12
2019-03-12T06:35:45.282Z,76.92
2019-03-12T06:36:45.275Z,77.64
2019-03-12T06:37:45.247Z,77.23
2019-03-12T06:38:45.244Z,77.23
2019-03-12T06:39:45.224Z,77.37
2019-03-12T06:40:45.260Z,78.30
2019-03-12T06:41:45.218Z,78.30
2019-03-12T06:42:45.195Z,77.99
2019-03-12T06:43:45.197Z,78.09
2019-03-12T06:44:45.221Z,78.41
2019-03-12T06:45:45.212Z,78.61
2019-03-12T06:46:45.155Z,78.30
2019-03-12T06:47:46.520Z,78.68
2019-03-12T06:48:45.136Z,78.47
2019-03-12T06:49:45.114Z,78.58
2019-03-12T06:50:45.127Z,78.37
2019-03-12T06:51:45.125Z,78.27
2019-03-12T06:52:45.099Z,78.34
2019-03-12T06:53:45.077Z,78.44
2019-03-12T06:54:45.080Z,78.44
2019-03-12T06:55:45.079Z,78.34
2019-03-12T06:56:45.053Z,78.96
2019-03-12T06:57:45.037Z,78.65
2019-03-12T06:58:45.045Z,78.34
2019-03-12T06:59:45.010Z,78.65
2019-03-12T07:00:45.028Z,79.06
2019-03-12T07:01:45.001Z,78.96
2019-03-12T07:02:44.977Z,79.27
2019-03-12T07:03:44.969Z,79.58
2019-03-12T07:04:44.953Z,79.69
2019-03-12T07:05:44.989Z,79.79
2019-03-12T07:06:44.928Z,79.90
2019-03-12T07:07:45.869Z,80.21
2019-03-12T07:08:44.915Z,80.21
2019-03-12T07:09:44.914Z,80.21
2019-03-12T07:10:44.920Z,80.21
2019-03-12T07:11:44.879Z,80.21
2019-03-12T07:12:44.868Z,80.10
2019-03-12T07:13:44.857Z,80.16
2019-03-12T07:14:44.843Z,79.96
2019-03-12T07:15:44.842Z,80.06
2019-03-12T07:16:44.812Z,80.16
2019-03-12T07:17:45.831Z,80.27
2019-03-12T07:18:44.803Z,80.47
2019-03-12T07:19:44.785Z,80.79
2019-03-12T07:20:44.784Z,80.47
2019-03-12T07:21:44.754Z,80.58
2019-03-12T07:22:44.746Z,81.14
2019-03-12T07:23:44.735Z,80.99
2019-03-12T07:24:44.740Z,80.99
2019-03-12T07:25:44.765Z,81.30
2019-03-12T07:26:44.715Z,81.10
2019-03-12T07:27:44.712Z,81.62
2019-03-12T07:28:50.242Z,81.82
2019-03-12T07:29:45.674Z,81.62
2019-03-12T07:30:44.706Z,81.20
2019-03-12T07:31:44.667Z,81.93
2019-03-12T07:32:44.636Z,81.51
2019-03-12T07:33:44.648Z,81.06
2019-03-12T07:34:44.616Z,81.10
2019-03-12T07:35:44.620Z,81.06
2019-03-12T07:36:44.599Z,81.06
2019-03-12T07:37:44.602Z,81.06
2019-03-12T07:38:44.577Z,81.68
2019-03-12T07:39:44.562Z,81.89
2019-03-12T07:40:44.560Z,82.31
2019-03-12T07:41:44.568Z,82.31
2019-03-12T07:42:44.535Z,81.99
2019-03-12T07:43:44.520Z,82.20
2019-03-12T07:44:44.513Z,81.65
2019-03-12T07:45:44.530Z,81.16
2019-03-12T07:46:44.494Z,81.02
2019-03-12T07:47:44.468Z,81.23
2019-03-12T07:48:44.471Z,81.13
2019-03-12T07:49:44.460Z,80.61
2019-03-12T07:50:44.466Z,80.82
2019-03-12T07:51:44.442Z,81.06
2019-03-12T07:52:44.439Z,81.13
2019-03-12T07:53:44.409Z,81.44
2019-03-12T07:54:44.428Z,81.68
2019-03-12T07:55:44.388Z,81.44
2019-03-12T07:56:44.408Z,82.17
2019-03-12T07:57:44.371Z,81.54
2019-03-12T07:58:44.358Z,81.96
2019-03-12T07:59:44.356Z,82.06
2019-03-12T08:00:44.331Z,81.75
2019-03-12T08:01:44.340Z,82.17
2019-03-12T08:02:44.315Z,82.13
2019-03-12T08:03:44.308Z,81.51
2019-03-12T08:04:44.300Z,81.92
2019-03-12T08:05:44.303Z,81.51
2019-03-12T08:06:44.302Z,81.51
2019-03-12T08:07:44.254Z,81.51
2019-03-12T08:08:44.255Z,82.03
2019-03-12T08:09:44.234Z,81.40
2019-03-12T08:10:44.223Z,81.71
2019-03-12T08:11:44.235Z,80.99
2019-03-12T08:12:44.213Z,81.92
2019-03-12T08:13:44.186Z,81.96
2019-03-12T08:14:44.175Z,81.96
2019-03-12T08:15:44.165Z,82.23
2019-03-12T08:16:44.176Z,82.48
2019-03-12T08:17:44.148Z,82.68
2019-03-12T08:18:44.141Z,82.44
2019-03-12T08:19:44.123Z,82.54
2019-03-12T08:20:44.120Z,82.34
2019-03-12T08:21:44.142Z,82.86
2019-03-12T08:22:44.085Z,83.06
2019-03-12T08:23:44.096Z,83.16
2019-03-12T08:24:44.059Z,83.16
2019-03-12T08:25:44.142Z,83.26
2019-03-12T08:26:44.054Z,83.06
2019-03-12T08:27:44.035Z,83.06
2019-03-12T08:28:44.025Z,82.40
2019-03-12T08:29:44.005Z,82.60
2019-03-12T08:30:44.097Z,81.88
2019-03-12T08:31:44.040Z,81.37
2019-03-12T08:32:43.978Z,81.47
2019-03-12T08:33:50.571Z,81.47
2019-03-12T08:34:44.970Z,81.47
2019-03-12T08:35:43.951Z,80.85
2019-03-12T08:36:43.945Z,81.16
2019-03-12T08:37:43.936Z,81.37
2019-03-12T08:38:46.228Z,81.05
2019-03-12T08:39:43.898Z,81.47
2019-03-12T08:40:52.413Z,81.26
2019-03-12T08:41:44.895Z,80.81
2019-03-12T08:42:54.118Z,80.85
2019-03-12T08:43:44.858Z,80.81
2019-03-12T08:44:43.840Z,81.26
2019-03-12T08:45:45.420Z,81.37
2019-03-12T08:46:43.826Z,81.47
2019-03-12T08:47:43.825Z,81.57
2019-03-12T08:48:43.804Z,81.43
2019-03-12T08:49:43.786Z,81.16
2019-03-12T08:50:43.783Z,80.85
2019-03-12T08:51:43.778Z,82.09
2019-03-12T08:52:43.780Z,82.13
2019-03-12T08:53:43.750Z,81.61
2019-03-12T08:54:53.894Z,81.68
2019-03-12T08:55:44.741Z,82.19
2019-03-12T08:56:43.723Z,82.09
2019-03-12T08:57:43.737Z,81.05
2019-03-12T08:58:43.696Z,81.26
2019-03-12T08:59:43.677Z,81.37
2019-03-12T09:00:43.675Z,81.23
2019-03-12T09:01:47.274Z,80.91
2019-03-12T09:02:43.655Z,80.91
2019-03-12T09:03:43.633Z,80.81
2019-03-12T09:04:43.626Z,80.71
2019-03-12T09:05:43.614Z,80.40
2019-03-12T09:06:43.603Z,79.98
2019-03-12T09:07:43.611Z,79.88
2019-03-12T09:08:43.571Z,78.95
2019-03-12T09:09:43.558Z,79.16
2019-03-12T09:10:43.552Z,79.94
2019-03-12T09:11:43.536Z,80.40
2019-03-12T09:12:43.548Z,80.26
2019-03-12T09:13:43.540Z,80.15
2019-03-12T09:14:43.510Z,79.94
2019-03-12T09:15:43.504Z,80.15
2019-03-12T09:16:43.479Z,79.84
2019-03-12T09:17:43.510Z,80.36
2019-03-12T09:18:43.471Z,80.26
2019-03-12T09:19:43.456Z,80.36
2019-03-12T09:20:43.442Z,80.05
2019-03-12T09:21:43.434Z,79.84
2019-03-12T09:22:43.414Z,79.77
2019-03-12T09:23:43.439Z,79.74
2019-03-12T09:24:43.392Z,79.84
2019-03-12T09:25:43.397Z,79.53
2019-03-12T09:26:43.378Z,78.91
2019-03-12T09:27:43.373Z,78.91
2019-03-12T09:28:43.377Z,79.67
2019-03-12T09:29:43.348Z,79.84
2019-03-12T09:30:43.343Z,79.74
2019-03-12T09:31:43.322Z,79.02
2019-03-12T09:32:43.312Z,78.81
2019-03-12T09:33:43.317Z,78.85
2019-03-12T09:34:43.283Z,78.91
2019-03-12T09:35:43.272Z,78.91
2019-03-12T09:36:43.265Z,78.91
2019-03-12T09:37:43.253Z,78.81
2019-03-12T09:38:43.260Z,78.67
2019-03-12T09:39:43.234Z,78.77
2019-03-12T09:40:43.222Z,78.98
2019-03-12T09:41:43.209Z,77.94
2019-03-12T09:42:43.209Z,77.01
2019-03-12T09:43:43.213Z,77.43
2019-03-12T09:44:43.179Z,77.12
2019-03-12T09:45:43.165Z,77.19
2019-03-12T09:46:43.166Z,77.01
2019-03-12T09:47:43.151Z,76.81
2019-03-12T09:48:43.157Z,76.36
2019-03-12T09:49:43.161Z,75.95
2019-03-12T09:50:43.115Z,76.05
2019-03-12T09:51:43.111Z,76.15
2019-03-12T09:52:43.103Z,75.32
2019-03-12T09:53:43.084Z,74.40
2019-03-12T09:54:43.062Z,73.88
2019-03-12T09:55:43.067Z,73.98
2019-03-12T09:56:43.043Z,73.54
2019-03-12T09:57:43.034Z,73.54
2019-03-12T09:58:43.044Z,73.16
2019-03-12T09:59:43.006Z,73.64
2019-03-12T10:00:43.006Z,72.40
2019-03-12T10:01:42.987Z,72.40
2019-03-12T10:02:42.982Z,72.50
2019-03-12T10:03:43.004Z,72.19
2019-03-12T10:04:42.987Z,72.50
2019-03-12T10:05:42.946Z,72.61
2019-03-12T10:06:42.937Z,71.98
2019-03-12T10:07:42.918Z,72.47
2019-03-12T10:08:42.930Z,71.64
2019-03-12T10:09:42.932Z,70.72
2019-03-12T10:10:42.898Z,69.09
2019-03-12T10:11:42.891Z,69.20
2019-03-12T10:12:45.249Z,69.09
2019-03-12T10:13:42.867Z,69.51
2019-03-12T10:14:42.858Z,69.40
2019-03-12T10:15:42.833Z,69.58
2019-03-12T10:16:42.831Z,69.99
2019-03-12T10:17:42.840Z,69.37
2019-03-12T10:18:42.803Z,69.27
2019-03-12T10:19:42.793Z,68.96
2019-03-12T10:20:42.780Z,68.96
2019-03-12T10:21:42.769Z,68.03
2019-03-12T10:22:42.770Z,67.93
2019-03-12T10:23:42.752Z,68.03
2019-03-12T10:24:42.748Z,68.34
2019-03-12T10:25:42.732Z,68.03
2019-03-12T10:26:42.744Z,67.30
2019-03-12T10:27:42.798Z,67.82
2019-03-12T10:28:42.692Z,68.13
2019-03-12T10:29:42.721Z,68.54
2019-03-12T10:30:42.664Z,68.34
2019-03-12T10:31:42.674Z,67.61
2019-03-12T10:32:42.644Z,67.51
2019-03-12T10:33:42.631Z,67.30
2019-03-12T10:34:42.622Z,67.82
2019-03-12T10:35:42.643Z,67.69
2019-03-12T10:36:42.601Z,67.72
2019-03-12T10:37:42.599Z,66.69
2019-03-12T10:38:42.586Z,66.69
2019-03-12T10:39:42.667Z,66.45
2019-03-12T10:40:42.591Z,67.27
2019-03-12T10:41:42.545Z,66.55
2019-03-12T10:42:42.557Z,66.14
2019-03-12T10:43:42.524Z,65.83
2019-03-12T10:44:42.521Z,66.24
2019-03-12T10:45:42.519Z,65.83
2019-03-12T10:46:42.492Z,64.70
2019-03-12T10:47:42.478Z,64.39
2019-03-12T10:48:42.500Z,63.25
2019-03-12T10:49:42.454Z,62.92
2019-03-12T10:50:42.469Z,63.32
2019-03-12T10:51:42.438Z,63.84
2019-03-12T10:52:42.425Z,65.28
2019-03-12T10:53:42.424Z,63.74
2019-03-12T10:54:42.400Z,63.01
2019-03-12T10:55:42.416Z,63.12
2019-03-12T10:56:42.381Z,63.09
2019-03-12T10:57:42.358Z,62.78
2019-03-12T10:58:42.355Z,62.81
2019-03-12T10:59:42.348Z,62.68
2019-03-12T11:00:42.343Z,62.06
2019-03-12T11:01:42.330Z,62.06
2019-03-12T11:02:42.333Z,61.65
2019-03-12T11:03:42.315Z,60.61
2019-03-12T11:04:42.296Z,62.16
2019-03-12T11:05:46.165Z,61.96
2019-03-12T11:06:42.318Z,62.06
2019-03-12T11:07:42.260Z,60.51
2019-03-12T11:08:42.245Z,60.41
2019-03-12T11:09:42.245Z,60.51
2019-03-12T11:10:42.274Z,60.61
2019-03-12T11:11:42.215Z,60.61
2019-03-12T11:12:42.209Z,60.82
2019-03-12T11:13:42.196Z,60.38
2019-03-12T11:14:42.178Z,60.28
2019-03-12T11:15:42.173Z,60.38
2019-03-12T11:16:42.168Z,60.59
2019-03-12T11:17:49.677Z,60.66
2019-03-12T11:18:43.130Z,59.66
2019-03-12T11:19:42.118Z,58.19
2019-03-12T11:20:42.109Z,59.12
2019-03-12T11:21:42.121Z,58.09
2019-03-12T11:22:42.092Z,59.56
2019-03-12T11:23:42.093Z,59.33
2019-03-12T11:24:42.065Z,59.35
2019-03-12T11:25:42.052Z,59.56
2019-03-12T11:26:42.104Z,59.25
2019-03-12T11:27:42.074Z,59.77
2019-03-12T11:28:42.030Z,59.63
2019-03-12T11:29:42.003Z,59.97
2019-03-12T11:30:42.001Z,59.12
2019-03-12T11:31:42.011Z,58.84
2019-03-12T11:32:41.973Z,58.53
2019-03-12T11:33:41.975Z,57.78
2019-03-12T11:34:41.960Z,58.91
2019-03-12T11:35:41.950Z,58.94
2019-03-12T11:36:42.010Z,58.70
2019-03-12T11:37:41.931Z,58.60
2019-03-12T11:38:41.920Z,57.88
2019-03-12T11:39:41.909Z,58.91
2019-03-12T11:40:41.911Z,58.19
2019-03-12T11:41:42.019Z,57.68
2019-03-12T11:42:41.864Z,57.47
2019-03-12T11:43:41.892Z,56.41
2019-03-12T11:44:41.843Z,55.90
2019-03-12T11:45:41.884Z,56.00
2019-03-12T11:46:45.215Z,56.31
2019-03-12T11:47:41.843Z,55.07
2019-03-12T11:48:41.803Z,55.98
2019-03-12T11:49:41.881Z,55.57
2019-03-12T11:50:41.876Z,55.57
2019-03-12T11:51:41.786Z,53.41
2019-03-12T11:52:52.720Z,53.09
2019-03-12T11:53:42.754Z,53.41
2019-03-12T11:54:41.777Z,53.20
2019-03-12T11:55:41.859Z,54.02
2019-03-12T11:56:41.742Z,53.81
2019-03-12T11:57:41.719Z,53.92
2019-03-12T11:58:41.699Z,53.58
2019-03-12T11:59:41.679Z,54.20
2019-03-12T12:00:41.681Z,54.20
2019-03-12T12:01:41.680Z,54.30
2019-03-12T12:02:41.681Z,52.45
2019-03-12T12:03:41.685Z,51.86
2019-03-12T12:04:41.617Z,51.94
2019-03-12T12:05:41.611Z,52.25
2019-03-12T12:06:42.966Z,52.25
2019-03-12T12:07:41.619Z,51.94
2019-03-12T12:08:41.583Z,52.25
2019-03-12T12:09:41.580Z,51.84
2019-03-12T12:10:41.558Z,51.42
2019-03-12T12:11:42.443Z,51.20
2019-03-12T12:12:41.556Z,51.92
2019-03-12T12:13:41.522Z,51.71
2019-03-12T12:14:41.522Z,51.30
2019-03-12T12:15:41.515Z,52.01
2019-03-12T12:16:41.492Z,51.92
2019-03-12T12:17:41.495Z,52.12
2019-03-12T12:18:41.471Z,52.33
2019-03-12T12:19:41.452Z,51.92
2019-03-12T12:20:41.458Z,52.53
2019-03-12T12:21:41.434Z,52.94
2019-03-12T12:22:41.462Z,53.05
2019-03-12T12:23:41.416Z,52.43
2019-03-12T12:24:41.412Z,52.94
2019-03-12T12:25:41.390Z,52.76
2019-03-12T12:26:41.382Z,52.25
2019-03-12T12:27:41.602Z,52.66
2019-03-12T12:28:41.361Z,53.58
2019-03-12T12:29:41.345Z,52.76
2019-03-12T12:30:41.357Z,52.97
2019-03-12T12:31:41.326Z,53.07
2019-03-12T12:32:41.354Z,52.97
2019-03-12T12:33:41.304Z,53.89
2019-03-12T12:34:41.309Z,53.38
2019-03-12T12:35:41.314Z,54.00
2019-03-12T12:36:41.287Z,53.79
2019-03-12T12:37:41.325Z,52.43
2019-03-12T12:38:41.262Z,51.50
2019-03-12T12:39:41.246Z,50.06
2019-03-12T12:40:41.252Z,49.86
2019-03-12T12:41:41.217Z,50.48
2019-03-12T12:42:41.236Z,50.27
2019-03-12T12:43:41.195Z,50.48
2019-03-12T12:44:41.203Z,50.37
2019-03-12T12:45:41.194Z,50.37
2019-03-12T12:46:41.152Z,50.78
2019-03-12T12:47:41.158Z,50.48
2019-03-12T12:48:41.132Z,51.30
2019-03-12T12:49:41.127Z,51.50
2019-03-12T12:50:41.120Z,51.40
2019-03-12T12:51:41.106Z,51.81
2019-03-12T12:52:41.099Z,51.63